Time;durP1;ratioP1;P1;durP2;ratioP2;P2;SDS_P1;SDS_P2;PMS_P1;PMS_P2;Temp;Humidity;BMP_temperature;BMP_pressure;BME280_temperature;BME280_humidity;BME280_pressure;Samples;Min_cycle;Max_cycle;Signal;HPM_P1;HPM_P2
2022/06/20 00:00:22;;;;;;;;;;;;;;;13.97;100.00;101383.47;2613896;36;19977;-58
2022/06/20 00:02:52;;;;;;;;;;;;;;;13.98;100.00;101389.72;2613694;36;19951;-59
2022/06/20 00:05:22;;;;;;;;;;;;;;;14.10;100.00;101403.94;2614036;36;19951;-57
2022/06/20 00:07:50;;;;;;;;;;;;;;;14.02;100.00;101410.94;2613502;31;20440;-58
2022/06/20 00:10:19;;;;;;;;;;;;;;;14.11;100.00;101405.66;2613761;36;19996;-58
2022/06/20 00:12:48;;;;;;;;;;;;;;;14.09;100.00;101403.09;2613589;31;20376;-58
2022/06/20 00:15:23;;;;;;;;;;;;;;;14.16;100.00;101414.19;2614351;36;20313;-57
2022/06/20 00:17:51;;;;;;;;;;;;;;;14.11;100.00;101421.91;2613653;31;20010;-60
2022/06/20 00:20:20;;;;;;;;;;;;;;;14.06;100.00;101406.09;2614178;36;20320;-55
2022/06/20 00:22:48;;;;;;;;;;;;;;;14.04;100.00;101420.78;2613908;36;19985;-57
2022/06/20 00:25:16;;;;;;;;;;;;;;;14.04;100.00;101409.94;2613932;36;19997;-56
2022/06/20 00:27:44;;;;;;;;;;;;;;;13.97;100.00;101415.94;2614004;36;19950;-57
2022/06/20 00:30:13;;;;;;;;;;;;;;;13.81;100.00;101413.81;2614032;36;19966;-58
2022/06/20 00:32:44;;;;;;;;;;;;;;;13.63;100.00;101429.94;2613181;36;19946;-56
2022/06/20 00:35:13;;;;;;;;;;;;;;;13.66;100.00;101424.22;2618303;36;19957;-57
2022/06/20 00:37:41;;;;;;;;;;;;;;;13.60;100.00;101427.50;2613797;36;19951;-57
2022/06/20 00:40:19;;;;;;;;;;;;;;;13.62;100.00;101425.50;2614001;36;19982;-56
2022/06/20 00:42:48;;;;;;;;;;;;;;;13.52;100.00;101427.34;2614365;36;19973;-56
2022/06/20 00:45:16;;;;;;;;;;;;;;;13.58;100.00;101429.47;2614055;36;20388;-59
2022/06/20 00:47:48;;;;;;;;;;;;;;;13.63;100.00;101434.47;2613981;36;19981;-57
2022/06/20 00:50:19;;;;;;;;;;;;;;;13.48;100.00;101410.53;2613364;36;19958;-58
2022/06/20 00:52:50;;;;;;;;;;;;;;;13.72;100.00;101405.72;2614291;36;19947;-58
2022/06/20 00:55:21;;;;;;;;;;;;;;;13.72;100.00;101401.16;2614132;36;19977;-56
2022/06/20 00:57:52;;;;;;;;;;;;;;;13.88;100.00;101400.56;2614535;36;19947;-60
2022/06/20 01:00:24;;;;;;;;;;;;;;;13.96;100.00;101400.69;2614951;36;20531;-59
2022/06/20 01:02:58;;;;;;;;;;;;;;;14.06;100.00;101407.94;2614166;36;19947;-58
2022/06/20 01:05:33;;;;;;;;;;;;;;;14.12;100.00;101418.19;2615957;47;19938;-57
2022/06/20 01:08:05;;;;;;;;;;;;;;;14.22;100.00;101424.41;2614153;31;20444;-56
2022/06/20 01:10:37;;;;;;;;;;;;;;;14.23;100.00;101419.88;2613576;36;19954;-57
2022/06/20 01:13:08;;;;;;;;;;;;;;;14.27;100.00;101419.44;2613727;31;19984;-58
2022/06/20 01:15:37;;;;;;;;;;;;;;;14.11;100.00;101430.03;2613390;36;19983;-59
2022/06/20 01:18:13;;;;;;;;;;;;;;;14.15;100.00;101439.56;2613703;36;19946;-58
2022/06/20 01:20:41;;;;;;;;;;;;;;;14.32;100.00;101446.91;2613622;36;19954;-57
2022/06/20 01:23:14;;;;;;;;;;;;;;;14.34;100.00;101444.94;2613896;36;19946;-58
2022/06/20 01:25:48;;;;;;;;;;;;;;;14.34;100.00;101454.91;2614356;36;20067;-59
2022/06/20 01:28:22;;;;;;;;;;;;;;;14.37;100.00;101452.75;2613764;36;19955;-61
2022/06/20 01:30:51;;;;;;;;;;;;;;;14.36;100.00;101451.03;2613208;36;20375;-56
2022/06/20 01:33:21;;;;;;;;;;;;;;;14.42;100.00;101465.00;2611540;36;19981;-58
2022/06/20 01:38:33;;;;;;;;;;;;;;;14.52;100.00;101482.94;2610069;36;20452;-58
2022/06/20 01:44:01;;;;;;;;;;;;;;;14.28;100.00;101494.25;2610102;36;20034;-59
2022/06/20 01:46:31;;;;;;;;;;;;;;;14.20;100.00;101503.09;2613139;36;19946;-57
2022/06/20 01:49:02;;;;;;;;;;;;;;;13.97;100.00;101505.25;2612072;36;19950;-57
2022/06/20 01:51:33;;;;;;;;;;;;;;;13.84;100.00;101507.41;2613577;36;19985;-58
2022/06/20 01:54:01;;;;;;;;;;;;;;;13.74;100.00;101512.78;2613443;36;19946;-54
2022/06/20 01:56:30;;;;;;;;;;;;;;;13.74;100.00;101514.66;2613665;36;19981;-57
2022/06/20 01:59:02;;;;;;;;;;;;;;;13.73;100.00;101508.38;2613575;36;19957;-57
2022/06/20 02:01:33;;;;;;;;;;;;;;;13.64;100.00;101495.69;2613581;36;19957;-57
2022/06/20 02:04:02;;;;;;;;;;;;;;;13.72;100.00;101495.84;2613595;36;20441;-58
2022/06/20 02:06:31;;;;;;;;;;;;;;;13.65;100.00;101482.03;2613844;31;19951;-56
2022/06/20 02:09:00;;;;;;;;;;;;;;;13.67;100.00;101485.44;2613488;36;19989;-57
2022/06/20 02:11:30;;;;;;;;;;;;;;;13.73;100.00;101488.59;2613420;36;19958;-59
2022/06/20 02:14:02;;;;;;;;;;;;;;;13.77;100.00;101479.19;2613635;36;19946;-52
2022/06/20 02:16:32;;;;;;;;;;;;;;;13.93;100.00;101476.75;2612976;36;20001;-57
2022/06/20 02:19:02;;;;;;;;;;;;;;;13.90;100.00;101468.94;2613287;36;19973;-58
2022/06/20 02:21:32;;;;;;;;;;;;;;;13.88;100.00;101462.78;2613899;36;20037;-60
2022/06/20 02:24:04;;;;;;;;;;;;;;;14.02;100.00;101464.22;2613495;36;20491;-59
2022/06/20 02:26:33;;;;;;;;;;;;;;;14.10;100.00;101469.75;2613404;31;19950;-58
2022/06/20 02:29:06;;;;;;;;;;;;;;;14.11;100.00;101470.63;2611764;36;19957;-57
2022/06/20 02:31:34;;;;;;;;;;;;;;;14.07;100.00;101467.34;2611010;36;20621;-54
2022/06/20 02:34:03;;;;;;;;;;;;;;;13.90;100.00;101466.22;2612872;36;19950;-58
2022/06/20 02:36:32;;;;;;;;;;;;;;;14.14;100.00;101465.75;2614083;36;19985;-58
2022/06/20 02:39:00;;;;;;;;;;;;;;;14.17;100.00;101454.66;2613452;36;19947;-57
2022/06/20 02:41:31;;;;;;;;;;;;;;;14.17;100.00;101459.22;2613510;36;19969;-54
2022/06/20 02:44:01;;;;;;;;;;;;;;;14.20;100.00;101453.50;2613241;36;19957;-57
2022/06/20 02:46:32;;;;;;;;;;;;;;;14.14;100.00;101459.50;2613230;31;19958;-59
2022/06/20 02:49:03;;;;;;;;;;;;;;;14.05;100.00;101460.38;2612853;36;19947;-55
2022/06/20 02:51:35;;;;;;;;;;;;;;;14.11;100.00;101465.22;2613973;36;19947;-59
2022/06/20 02:54:04;;;;;;;;;;;;;;;14.17;100.00;101464.63;2613289;36;19947;-57
2022/06/20 02:56:34;;;;;;;;;;;;;;;14.13;100.00;101464.09;2613951;31;19970;-57
2022/06/20 02:59:05;;;;;;;;;;;;;;;13.91;100.00;101467.06;2613380;36;19992;-56
2022/06/20 03:01:40;;;;;;;;;;;;;;;13.90;100.00;101463.53;2613288;36;19973;-58
2022/06/20 03:04:10;;;;;;;;;;;;;;;13.88;100.00;101457.38;2613420;36;20347;-59
2022/06/20 03:06:40;;;;;;;;;;;;;;;13.85;100.00;101463.09;2613781;36;19954;-58
2022/06/20 03:09:08;;;;;;;;;;;;;;;13.86;100.00;101453.97;2613237;36;19954;-54
2022/06/20 03:11:39;;;;;;;;;;;;;;;13.92;100.00;101460.69;2614261;36;19958;-56
2022/06/20 03:14:09;;;;;;;;;;;;;;;13.83;100.00;101460.53;2613764;36;19993;-56
2022/06/20 03:16:40;;;;;;;;;;;;;;;13.91;100.00;101454.38;2614281;36;19977;-58
2022/06/20 03:19:09;;;;;;;;;;;;;;;13.94;100.00;101448.72;2613691;36;19953;-60
2022/06/20 03:21:39;;;;;;;;;;;;;;;13.84;100.00;101450.56;2614267;36;20355;-57
2022/06/20 03:24:08;;;;;;;;;;;;;;;13.82;100.00;101444.44;2614408;31;19946;-57
2022/06/20 03:26:36;;;;;;;;;;;;;;;13.94;100.00;101443.31;2613979;36;19985;-56
2022/06/20 03:29:04;;;;;;;;;;;;;;;14.02;100.00;101443.41;2613243;36;19951;-59
2022/06/20 03:31:33;;;;;;;;;;;;;;;13.91;100.00;101434.59;2613978;36;19977;-57
2022/06/20 03:34:03;;;;;;;;;;;;;;;13.99;100.00;101430.19;2613685;36;19951;-60
2022/06/20 03:36:32;;;;;;;;;;;;;;;14.13;100.00;101430.72;2613492;31;20375;-55
2022/06/20 03:39:00;;;;;;;;;;;;;;;14.24;100.00;101432.44;2613601;36;19951;-58
2022/06/20 03:41:29;;;;;;;;;;;;;;;14.28;100.00;101428.41;2614000;36;19978;-54
2022/06/20 03:44:00;;;;;;;;;;;;;;;14.23;100.00;101419.88;2613060;36;19977;-58
2022/06/20 03:46:30;;;;;;;;;;;;;;;14.04;100.00;101421.63;2613818;36;19951;-57
2022/06/20 03:49:07;;;;;;;;;;;;;;;14.11;100.00;101420.03;2611881;36;19950;-58
2022/06/20 03:51:40;;;;;;;;;;;;;;;14.12;100.00;101418.19;2614490;36;19985;-58
2022/06/20 03:54:10;;;;;;;;;;;;;;;14.13;100.00;101414.47;2614145;31;20510;-59
2022/06/20 03:56:41;;;;;;;;;;;;;;;14.07;100.00;101409.66;2613584;36;19946;-56
2022/06/20 03:59:13;;;;;;;;;;;;;;;14.09;100.00;101413.06;2615468;36;19965;-59
2022/06/20 04:01:47;;;;;;;;;;;;;;;14.21;100.00;101409.19;2614462;54;19969;-59
2022/06/20 04:04:20;;;;;;;;;;;;;;;14.27;100.00;101405.91;2610679;36;19978;-57
2022/06/20 04:06:54;;;;;;;;;;;;;;;14.26;100.00;101398.78;2612227;31;19950;-58
2022/06/20 04:12:10;;;;;;;;;;;;;;;14.28;100.00;101394.09;2613614;36;19954;-55
2022/06/20 04:14:41;;;;;;;;;;;;;;;14.12;100.00;101396.53;2612924;36;19974;-57
2022/06/20 04:20:00;;;;;;;;;;;;;;;14.16;100.00;101401.53;2613518;36;19958;-60
2022/06/20 04:22:33;;;;;;;;;;;;;;;14.24;100.00;101399.94;2612233;36;19958;-59
2022/06/20 04:25:04;;;;;;;;;;;;;;;14.19;100.00;101403.06;2613691;36;19947;-58
2022/06/20 04:27:36;;;;;;;;;;;;;;;14.16;100.00;101412.34;2613547;36;20526;-59
2022/06/20 04:30:06;;;;;;;;;;;;;;;14.14;100.00;101398.09;2612811;31;20298;-58
2022/06/20 04:32:36;;;;;;;;;;;;;;;14.02;100.00;101407.38;2612313;36;19954;-61
2022/06/20 04:35:08;;;;;;;;;;;;;;;14.07;100.00;101410.50;2614073;36;20407;-56
2022/06/20 04:37:43;;;;;;;;;;;;;;;14.04;100.00;101418.06;2613491;36;19950;-53
2022/06/20 04:40:13;;;;;;;;;;;;;;;13.87;100.00;101422.34;2613457;31;19985;-60
2022/06/20 04:42:44;;;;;;;;;;;;;;;13.91;100.00;101419.22;2613741;36;19951;-57
2022/06/20 04:45:15;;;;;;;;;;;;;;;14.02;100.00;101429.03;2612722;36;19971;-58
2022/06/20 04:47:46;;;;;;;;;;;;;;;13.97;100.00;101431.31;2613143;36;19951;-56
2022/06/20 04:50:17;;;;;;;;;;;;;;;14.11;100.00;101428.16;2613205;36;19950;-55
2022/06/20 04:52:48;;;;;;;;;;;;;;;14.13;100.00;101426.19;2613661;36;19951;-58
2022/06/20 04:55:17;;;;;;;;;;;;;;;13.98;100.00;101428.47;2612856;36;19947;-58
2022/06/20 04:57:46;;;;;;;;;;;;;;;13.98;100.00;101435.72;2613619;36;19958;-58
2022/06/20 05:00:17;;;;;;;;;;;;;;;13.84;100.00;101437.88;2612781;31;19946;-59
2022/06/20 05:02:46;;;;;;;;;;;;;;;13.92;100.00;101431.75;2613557;36;19996;-59
2022/06/20 05:05:18;;;;;;;;;;;;;;;14.04;100.00;101431.59;2613296;36;19950;-59
2022/06/20 05:07:50;;;;;;;;;;;;;;;14.10;100.00;101433.72;2613651;31;20807;-58
2022/06/20 05:10:19;;;;;;;;;;;;;;;14.17;100.00;101440.28;2604842;31;19950;-59
2022/06/20 05:12:51;;;;;;;;;;;;;;;14.08;100.00;101443.84;2612138;31;19985;-58
2022/06/20 05:15:24;;;;;;;;;;;;;;;14.16;100.00;101447.53;2613029;36;19974;-56
2022/06/20 05:17:53;;;;;;;;;;;;;;;14.14;100.00;101454.09;2613301;36;19954;-57
2022/06/20 05:20:25;;;;;;;;;;;;;;;14.39;100.00;101449.06;2612692;36;19948;-59
2022/06/20 05:23:01;;;;;;;;;;;;;;;14.51;100.00;101442.47;2613692;36;19951;-58
2022/06/20 05:25:30;;;;;;;;;;;;;;;14.44;100.00;101441.34;2612946;31;19975;-57
2022/06/20 05:28:02;;;;;;;;;;;;;;;14.67;100.00;101445.41;2612650;36;19969;-57
2022/06/20 05:30:32;;;;;;;;;;;;;;;14.81;100.00;101443.22;2613002;31;20541;-60
2022/06/20 05:33:03;;;;;;;;;;;;;;;14.75;100.00;101449.25;2611686;31;20395;-58
2022/06/20 05:35:34;;;;;;;;;;;;;;;14.87;100.00;101439.94;2611544;36;19950;-58
2022/06/20 05:38:07;;;;;;;;;;;;;;;14.82;100.00;101447.66;2613076;31;20004;-58
2022/06/20 05:40:38;;;;;;;;;;;;;;;14.83;100.00;101449.38;2613149;36;19954;-58
2022/06/20 05:43:07;;;;;;;;;;;;;;;14.95;100.00;101450.88;2613114;36;21176;-57
2022/06/20 05:45:35;;;;;;;;;;;;;;;15.11;100.00;101454.78;2613360;36;19957;-57
2022/06/20 05:48:08;;;;;;;;;;;;;;;15.07;100.00;101441.53;2612650;36;19950;-57
2022/06/20 05:50:43;;;;;;;;;;;;;;;15.12;100.00;101445.63;2613332;36;19951;-56
2022/06/20 05:53:23;;;;;;;;;;;;;;;14.96;100.00;101454.41;2612979;36;19966;-59
2022/06/20 05:55:51;;;;;;;;;;;;;;;15.11;100.00;101452.91;2613259;36;20363;-57
2022/06/20 05:58:22;;;;;;;;;;;;;;;15.12;100.00;101456.47;2610694;36;19977;-56
2022/06/20 06:00:52;;;;;;;;;;;;;;;15.14;100.00;101463.47;2611239;31;19958;-58
2022/06/20 06:03:23;;;;;;;;;;;;;;;15.28;100.00;101474.81;2612654;36;19950;-58
2022/06/20 06:05:54;;;;;;;;;;;;;;;15.26;100.00;101474.13;2612488;36;19950;-59
2022/06/20 06:08:27;;;;;;;;;;;;;;;15.59;100.00;101484.31;2611809;36;19958;-58
2022/06/20 06:10:58;;;;;;;;;;;;;;;15.59;100.00;101478.88;2612805;36;19985;-58
2022/06/20 06:13:30;;;;;;;;;;;;;;;15.49;100.00;101471.78;2612722;36;19947;-58
2022/06/20 06:18:49;;;;;;;;;;;;;;;15.63;100.00;101487.56;2612333;36;19957;-59
2022/06/20 06:21:18;;;;;;;;;;;;;;;15.83;100.00;101491.03;2612062;36;19973;-59
2022/06/20 06:23:50;;;;;;;;;;;;;;;15.87;100.00;101488.84;2612784;36;19951;-55
2022/06/20 06:26:19;;;;;;;;;;;;;;;16.16;100.00;101493.16;2611520;36;19978;-58
2022/06/20 06:28:49;;;;;;;;;;;;;;;16.29;100.00;101501.75;2612745;31;19947;-59
2022/06/20 06:31:21;;;;;;;;;;;;;;;16.56;100.00;101486.31;2611653;36;19966;-58
2022/06/20 06:33:52;;;;;;;;;;;;;;;16.35;100.00;101487.53;2612339;36;19951;-54
2022/06/20 06:36:23;;;;;;;;;;;;;;;16.70;100.00;101493.03;2612736;36;19978;-57
2022/06/20 06:38:56;;;;;;;;;;;;;;;17.15;100.00;101500.94;2613020;36;19978;-58
2022/06/20 06:41:26;;;;;;;;;;;;;;;16.93;100.00;101510.53;2613276;31;19951;-63
2022/06/20 06:43:54;;;;;;;;;;;;;;;17.09;100.00;101509.75;2613627;36;20370;-58
2022/06/20 06:46:25;;;;;;;;;;;;;;;17.07;100.00;101511.78;2612118;36;20425;-59
2022/06/20 06:48:55;;;;;;;;;;;;;;;17.37;100.00;101501.34;2610642;36;20498;-59
2022/06/20 06:51:28;;;;;;;;;;;;;;;17.17;100.00;101504.34;2613305;36;19989;-58
2022/06/20 06:54:02;;;;;;;;;;;;;;;17.25;100.00;101506.22;2613727;36;19983;-60
2022/06/20 06:56:34;;;;;;;;;;;;;;;17.19;100.00;101506.06;2611112;36;19958;-61
2022/06/20 06:59:07;;;;;;;;;;;;;;;16.94;100.00;101511.38;2611047;36;19951;-59
2022/06/20 07:01:39;;;;;;;;;;;;;;;17.45;100.00;101514.97;2612654;36;20498;-61
2022/06/20 07:04:12;;;;;;;;;;;;;;;17.64;100.00;101518.44;2606948;36;20521;-62
2022/06/20 07:06:44;;;;;;;;;;;;;;;17.52;100.00;101504.31;2602883;36;20324;-59
2022/06/20 07:09:18;;;;;;;;;;;;;;;17.43;100.00;101508.00;2612688;36;20326;-60
2022/06/20 07:11:48;;;;;;;;;;;;;;;17.34;100.00;101502.53;2613009;36;19996;-58
2022/06/20 07:14:18;;;;;;;;;;;;;;;16.60;100.00;101509.44;2612068;36;19981;-54
2022/06/20 07:16:53;;;;;;;;;;;;;;;16.92;100.00;101507.97;2613711;36;20498;-58
2022/06/20 07:19:24;;;;;;;;;;;;;;;17.16;100.00;101505.34;2611737;36;19963;-59
2022/06/20 07:21:52;;;;;;;;;;;;;;;17.68;100.00;101509.78;2614361;31;20457;-58
2022/06/20 07:24:24;;;;;;;;;;;;;;;17.95;100.00;101518.69;2613931;31;20609;-56
2022/06/20 07:26:54;;;;;;;;;;;;;;;18.25;100.00;101518.19;2612786;36;20336;-60
2022/06/20 07:29:25;;;;;;;;;;;;;;;18.39;100.00;101523.81;2613573;31;19947;-59
2022/06/20 07:31:54;;;;;;;;;;;;;;;18.68;100.00;101524.28;2612345;36;19973;-58
2022/06/20 07:34:25;;;;;;;;;;;;;;;18.24;100.00;101527.38;2611836;36;20328;-58
2022/06/20 07:36:57;;;;;;;;;;;;;;;17.88;100.00;101530.41;2611087;36;19985;-60
2022/06/20 07:39:31;;;;;;;;;;;;;;;17.38;100.00;101530.25;2609494;36;19975;-59
2022/06/20 07:42:04;;;;;;;;;;;;;;;17.65;100.00;101537.34;2612437;36;20399;-59
2022/06/20 07:44:34;;;;;;;;;;;;;;;17.94;100.00;101540.66;2612697;36;19977;-59
2022/06/20 07:47:05;;;;;;;;;;;;;;;17.44;100.00;101535.03;2611242;36;19954;-60
2022/06/20 07:49:35;;;;;;;;;;;;;;;17.12;100.00;101542.06;2612087;36;20402;-61
2022/06/20 07:52:06;;;;;;;;;;;;;;;17.31;100.00;101534.66;2611492;31;19950;-58
2022/06/20 07:54:40;;;;;;;;;;;;;;;17.77;100.00;101528.84;2612829;36;19958;-58
2022/06/20 07:57:12;;;;;;;;;;;;;;;17.74;100.00;101540.06;2612188;36;20332;-59
2022/06/20 07:59:45;;;;;;;;;;;;;;;17.48;100.00;101530.97;2611334;36;19971;-59
2022/06/20 08:02:17;;;;;;;;;;;;;;;17.68;100.00;101530.69;2611521;36;19951;-57
2022/06/20 08:04:47;;;;;;;;;;;;;;;18.24;100.00;101530.09;2611468;36;19998;-59
2022/06/20 08:07:20;;;;;;;;;;;;;;;18.20;100.00;101532.34;2604103;36;19974;-59
2022/06/20 08:09:55;;;;;;;;;;;;;;;18.41;100.00;101526.34;2610670;36;20459;-59
2022/06/20 08:12:27;;;;;;;;;;;;;;;18.78;100.00;101522.19;2611141;36;19962;-59
2022/06/20 08:14:57;;;;;;;;;;;;;;;19.12;100.00;101529.28;2606645;36;19958;-58
2022/06/20 08:17:26;;;;;;;;;;;;;;;18.44;100.00;101530.63;2614315;36;19955;-61
2022/06/20 08:19:54;;;;;;;;;;;;;;;17.89;100.00;101532.09;2609000;36;19974;-59
2022/06/20 08:22:24;;;;;;;;;;;;;;;18.41;100.00;101528.25;2609993;36;19985;-59
2022/06/20 08:24:57;;;;;;;;;;;;;;;18.50;100.00;101538.94;2612804;36;19954;-60
2022/06/20 08:27:29;;;;;;;;;;;;;;;18.83;100.00;101538.91;2612455;31;19989;-59
2022/06/20 08:30:02;;;;;;;;;;;;;;;18.43;100.00;101535.19;2612634;36;19959;-60
2022/06/20 08:32:34;;;;;;;;;;;;;;;18.48;100.00;101542.91;2610776;36;19981;-58
2022/06/20 08:35:09;;;;;;;;;;;;;;;18.96;100.00;101541.09;2612645;36;19954;-60
2022/06/20 08:37:39;;;;;;;;;;;;;;;19.20;100.00;101542.91;2612307;36;19977;-60
2022/06/20 08:40:16;;;;;;;;;;;;;;;19.29;100.00;101545.59;2612345;31;20403;-59
2022/06/20 08:42:59;;;;;;;;;;;;;;;19.14;100.00;101546.34;2612927;36;20050;-58
2022/06/20 08:45:43;;;;;;;;;;;;;;;19.16;100.00;101555.22;2612931;31;20412;-59
2022/06/20 08:48:26;;;;;;;;;;;;;;;19.64;100.00;101546.13;2612429;36;19973;-58
2022/06/20 08:51:07;;;;;;;;;;;;;;;19.61;100.00;101561.84;2613120;36;20448;-59
2022/06/20 08:54:02;;;;;;;;;;;;;;;19.43;93.15;101570.31;2612318;36;19957;-59
2022/06/20 08:56:39;;;;;;;;;;;;;;;19.27;100.00;101564.88;2610961;36;19989;-58
2022/06/20 08:59:15;;;;;;;;;;;;;;;19.52;98.25;101568.38;2612973;31;19971;-59
2022/06/20 09:01:50;;;;;;;;;;;;;;;19.65;79.99;101566.94;2611624;36;20436;-61
2022/06/20 09:04:30;;;;;;;;;;;;;;;19.72;100.00;101557.84;2612176;36;19950;-60
2022/06/20 09:07:08;;;;;;;;;;;;;;;19.83;87.32;101559.38;2611738;36;19947;-61
2022/06/20 09:09:48;;;;;;;;;;;;;;;19.89;86.79;101553.19;2612899;36;19973;-59
2022/06/20 09:12:32;;;;;;;;;;;;;;;20.00;82.61;101562.00;2613492;36;20352;-56
2022/06/20 09:15:09;;;;;;;;;;;;;;;20.42;72.45;101563.34;2606338;36;19992;-58
2022/06/20 09:17:43;;;;;;;;;;;;;;;19.93;78.77;101556.38;2612250;36;19953;-59
2022/06/20 09:20:17;;;;;;;;;;;;;;;20.52;73.47;101552.16;2610548;36;19950;-59
2022/06/20 09:23:00;;;;;;;;;;;;;;;20.74;68.77;101562.22;2613375;36;19950;-57
2022/06/20 09:25:35;;;;;;;;;;;;;;;20.75;69.20;101560.38;2603003;31;19980;-58
2022/06/20 09:28:13;;;;;;;;;;;;;;;20.69;72.73;101561.13;2611903;36;19954;-59
2022/06/20 09:30:47;;;;;;;;;;;;;;;21.28;67.38;101563.88;2613077;36;20432;-60
2022/06/20 09:33:37;;;;;;;;;;;;;;;21.90;55.99;101560.88;2613206;36;19955;-58
2022/06/20 09:36:25;;;;;;;;;;;;;;;22.00;55.47;101566.88;2613232;36;19954;-59
2022/06/20 09:39:05;;;;;;;;;;;;;;;21.62;61.62;101573.38;2613013;36;19984;-60
2022/06/20 09:41:37;;;;;;;;;;;;;;;21.24;65.43;101578.13;2612173;36;19950;-59
2022/06/20 09:44:18;;;;;;;;;;;;;;;20.92;73.47;101575.59;2611452;31;19951;-59
2022/06/20 09:46:53;;;;;;;;;;;;;;;20.41;88.46;101584.38;2613811;36;19947;-60
2022/06/20 09:49:25;;;;;;;;;;;;;;;20.15;100.00;101579.28;2611209;36;19955;-59
2022/06/20 09:51:59;;;;;;;;;;;;;;;19.97;100.00;101584.22;2613015;36;20377;-58
2022/06/20 09:54:31;;;;;;;;;;;;;;;19.95;100.00;101573.47;2613692;36;20329;-59
2022/06/20 09:57:02;;;;;;;;;;;;;;;19.64;100.00;101598.00;2611901;31;19969;-60
2022/06/20 09:59:38;;;;;;;;;;;;;;;19.67;100.00;101592.19;2610527;36;19947;-59
2022/06/20 10:02:11;;;;;;;;;;;;;;;19.79;95.92;101585.34;2612851;31;19950;-62
2022/06/20 10:04:46;;;;;;;;;;;;;;;19.64;100.00;101596.16;2612053;31;19947;-61
2022/06/20 10:07:18;;;;;;;;;;;;;;;19.00;100.00;101597.03;2612920;36;19981;-58
2022/06/20 10:10:00;;;;;;;;;;;;;;;18.80;100.00;101604.72;2612154;36;19958;-59
2022/06/20 10:12:34;;;;;;;;;;;;;;;19.13;100.00;101601.94;2612968;36;19994;-59
2022/06/20 10:15:11;;;;;;;;;;;;;;;19.64;100.00;101603.47;2613203;36;19951;-60
2022/06/20 10:17:46;;;;;;;;;;;;;;;20.06;89.78;101602.25;2611476;36;20004;-58
2022/06/20 10:20:24;;;;;;;;;;;;;;;20.16;94.61;101613.78;2611403;36;20251;-57
2022/06/20 10:22:56;;;;;;;;;;;;;;;19.47;100.00;101611.72;2609599;36;19954;-60
2022/06/20 10:25:39;;;;;;;;;;;;;;;19.05;100.00;101610.13;2605868;36;19978;-58
2022/06/20 10:28:15;;;;;;;;;;;;;;;20.19;100.00;101605.22;2611560;31;19954;-58
2022/06/20 10:30:48;;;;;;;;;;;;;;;19.67;96.53;101619.50;2606665;36;19959;-60
2022/06/20 10:33:34;;;;;;;;;;;;;;;20.38;85.77;101611.25;2612894;31;20015;-61
2022/06/20 10:36:13;;;;;;;;;;;;;;;20.13;89.15;101625.09;2611352;36;19950;-58
2022/06/20 10:38:42;;;;;;;;;;;;;;;19.75;89.92;101622.19;2609763;36;20497;-58
2022/06/20 10:41:12;;;;;;;;;;;;;;;20.00;97.10;101625.69;2612436;36;19969;-56
2022/06/20 10:43:46;;;;;;;;;;;;;;;20.35;93.07;101628.03;2612418;36;20039;-59
2022/06/20 10:46:21;;;;;;;;;;;;;;;20.59;87.01;101625.06;2612975;36;19947;-60
2022/06/20 10:48:57;;;;;;;;;;;;;;;20.47;88.72;101623.81;2611525;31;20298;-59
2022/06/20 10:51:31;;;;;;;;;;;;;;;20.43;92.68;101630.69;2609121;36;19951;-59
2022/06/20 10:54:05;;;;;;;;;;;;;;;20.47;89.22;101632.03;2612251;36;19947;-58
2022/06/20 10:56:36;;;;;;;;;;;;;;;20.42;91.93;101637.19;2611903;36;19981;-59
2022/06/20 10:59:11;;;;;;;;;;;;;;;20.19;96.04;101629.84;2612707;36;19946;-59
2022/06/20 11:01:46;;;;;;;;;;;;;;;20.64;95.51;101628.13;2612288;36;19950;-58
2022/06/20 11:04:22;;;;;;;;;;;;;;;20.89;96.87;101627.06;2611197;36;19969;-59
2022/06/20 11:07:00;;;;;;;;;;;;;;;20.65;94.01;101628.97;2611586;36;19947;-59
2022/06/20 11:09:33;;;;;;;;;;;;;;;20.89;91.10;101624.34;2612348;36;19950;-58
2022/06/20 11:12:06;;;;;;;;;;;;;;;20.39;96.59;101624.75;2613178;31;19962;-59
2022/06/20 11:14:38;;;;;;;;;;;;;;;20.71;92.58;101622.78;2612222;36;19954;-60
2022/06/20 11:17:17;;;;;;;;;;;;;;;21.20;98.48;101616.00;2612247;31;19954;-58
2022/06/20 11:19:49;;;;;;;;;;;;;;;21.77;87.53;101619.09;2611833;36;19953;-58
2022/06/20 11:22:26;;;;;;;;;;;;;;;21.22;88.45;101624.88;2612787;36;20359;-59
2022/06/20 11:24:59;;;;;;;;;;;;;;;21.50;86.94;101633.28;2611877;36;19978;-59
2022/06/20 11:27:35;;;;;;;;;;;;;;;20.93;90.66;101637.47;2612167;36;19950;-57
2022/06/20 11:30:09;;;;;;;;;;;;;;;20.87;99.56;101638.22;2614035;36;20356;-58
2022/06/20 11:32:47;;;;;;;;;;;;;;;20.18;100.00;101644.53;2606391;36;19950;-59
2022/06/20 11:35:24;;;;;;;;;;;;;;;19.50;100.00;101641.41;2612630;36;19958;-58
2022/06/20 11:38:00;;;;;;;;;;;;;;;20.67;100.00;101637.91;2606398;31;19981;-59
2022/06/20 11:40:35;;;;;;;;;;;;;;;20.39;100.00;101634.81;2612145;36;20444;-59
2022/06/20 11:43:17;;;;;;;;;;;;;;;20.44;96.85;101633.22;2613759;36;20050;-58
2022/06/20 11:45:55;;;;;;;;;;;;;;;20.84;100.00;101627.63;2612606;36;19954;-59
2022/06/20 11:48:31;;;;;;;;;;;;;;;20.06;100.00;101638.63;2612260;36;19955;-58
2022/06/20 11:51:04;;;;;;;;;;;;;;;19.35;100.00;101638.56;2612512;36;19953;-59
2022/06/20 11:53:44;;;;;;;;;;;;;;;19.70;100.00;101635.53;2613118;36;19977;-59
2022/06/20 11:56:18;;;;;;;;;;;;;;;20.91;100.00;101636.81;2611343;36;19953;-59
2022/06/20 11:58:56;;;;;;;;;;;;;;;20.76;100.00;101635.91;2613604;36;19951;-59
2022/06/20 12:01:28;;;;;;;;;;;;;;;19.91;100.00;101646.72;2613058;36;19977;-58
2022/06/20 12:04:02;;;;;;;;;;;;;;;20.50;96.87;101636.28;2612306;36;19962;-59
2022/06/20 12:06:33;;;;;;;;;;;;;;;19.75;100.00;101644.03;2612654;36;20447;-57
2022/06/20 12:09:02;;;;;;;;;;;;;;;20.29;100.00;101641.38;2612476;31;19981;-58
2022/06/20 12:11:41;;;;;;;;;;;;;;;20.74;100.00;101648.94;2613838;31;19951;-58
2022/06/20 12:14:15;;;;;;;;;;;;;;;20.73;100.00;101647.22;2611848;36;20530;-59
2022/06/20 12:16:50;;;;;;;;;;;;;;;20.63;99.65;101652.94;2612889;36;19946;-58
2022/06/20 12:24:54;;;;;;;;;;;;;;;19.80;100.00;101652.56;2612492;36;19977;-57
2022/06/20 12:27:22;;;;;;;;;;;;;;;19.48;100.00;101670.78;2613463;36;19955;-60
2022/06/20 12:29:51;;;;;;;;;;;;;;;19.78;100.00;101671.03;2613651;36;19954;-62
2022/06/20 12:32:20;;;;;;;;;;;;;;;19.66;100.00;101669.69;2611680;36;19955;-58
2022/06/20 12:34:55;;;;;;;;;;;;;;;19.75;100.00;101671.38;2612765;36;20186;-60
2022/06/20 12:37:28;;;;;;;;;;;;;;;19.87;100.00;101669.97;2611990;36;19986;-58
2022/06/20 12:40:00;;;;;;;;;;;;;;;20.21;100.00;101668.75;2605959;36;20014;-60
2022/06/20 12:42:32;;;;;;;;;;;;;;;20.03;100.00;101684.59;2611611;36;19951;-59
2022/06/20 12:45:11;;;;;;;;;;;;;;;19.45;100.00;101676.59;2612973;36;20440;-58
2022/06/20 12:47:56;;;;;;;;;;;;;;;19.64;100.00;101679.94;2605429;36;19962;-59
2022/06/20 12:50:32;;;;;;;;;;;;;;;19.78;100.00;101688.25;2611925;36;19989;-59
2022/06/20 12:53:07;;;;;;;;;;;;;;;19.74;100.00;101686.03;2613646;31;20453;-57
2022/06/20 12:55:41;;;;;;;;;;;;;;;20.23;100.00;101679.50;2613001;36;19961;-57
2022/06/20 12:58:16;;;;;;;;;;;;;;;20.60;98.75;101670.56;2612443;36;20407;-57
2022/06/20 13:00:49;;;;;;;;;;;;;;;21.12;92.44;101670.81;2612110;36;19957;-58
2022/06/20 13:03:29;;;;;;;;;;;;;;;21.19;94.84;101682.72;2612212;36;19955;-58
2022/06/20 13:06:11;;;;;;;;;;;;;;;20.24;100.00;101682.09;2612747;36;19951;-58
2022/06/20 13:08:56;;;;;;;;;;;;;;;20.41;100.00;101680.09;2611635;36;19953;-58
2022/06/20 13:11:33;;;;;;;;;;;;;;;20.80;92.89;101675.53;2612799;36;19983;-59
2022/06/20 13:14:10;;;;;;;;;;;;;;;21.57;89.41;101669.00;2612658;36;19953;-57